createdAt,value
2023-03-04T00:29:51.791Z,3.80
2023-03-04T00:39:55.339Z,3.82
2023-03-04T00:49:59.013Z,3.77
2023-03-04T01:00:07.589Z,3.83
2023-03-04T01:10:15.316Z,3.88
2023-03-04T01:20:19.277Z,3.90
2023-03-04T01:30:26.283Z,3.88
2023-03-04T01:40:31.601Z,3.82
2023-03-04T01:50:36.176Z,3.84
2023-03-04T02:00:41.894Z,3.87
2023-03-04T02:10:47.134Z,3.94
2023-03-04T02:21:19.251Z,3.96
2023-03-04T02:31:34.035Z,4.05
2023-03-04T02:41:38.905Z,4.11
2023-03-04T02:51:42.873Z,4.20
2023-03-04T03:01:50.337Z,4.17
2023-03-04T03:11:54.118Z,4.25
2023-03-04T03:21:58.293Z,4.30
2023-03-04T03:32:03.381Z,4.30
2023-03-04T03:42:07.160Z,4.36
2023-03-04T03:52:11.674Z,4.38
2023-03-04T04:02:18.154Z,4.39
2023-03-04T04:12:21.784Z,4.40
2023-03-04T04:22:27.131Z,4.50
2023-03-04T04:32:33.329Z,4.44
2023-03-04T04:42:37.283Z,4.38
2023-03-04T04:52:43.901Z,4.52
2023-03-04T05:03:25.558Z,4.46
2023-03-04T05:13:30.289Z,4.49
2023-03-04T05:23:39.265Z,4.50
2023-03-04T05:33:42.840Z,4.53
2023-03-04T05:43:46.418Z,4.73
2023-03-04T05:53:50.945Z,4.73
2023-03-04T06:03:56.315Z,4.78
2023-03-04T06:13:59.905Z,4.77
2023-03-04T06:24:03.534Z,4.92
2023-03-04T06:34:12.139Z,4.86
2023-03-04T06:44:15.779Z,4.89
2023-03-04T06:54:20.401Z,4.96
2023-03-04T07:04:26.454Z,5.12
2023-03-04T07:14:30.191Z,5.35
2023-03-04T07:24:33.709Z,5.14
2023-03-04T07:34:37.569Z,5.13
2023-03-04T07:44:44.196Z,5.15
2023-03-04T07:54:48.158Z,5.44
2023-03-04T08:04:51.784Z,5.61
2023-03-04T08:14:57.198Z,5.80
2023-03-04T08:25:00.827Z,5.89
2023-03-04T08:35:04.771Z,5.65
2023-03-04T08:45:12.343Z,5.41
2023-03-04T08:55:16.074Z,5.02
2023-03-04T09:05:19.776Z,4.72
2023-03-04T09:15:25.837Z,5.22
2023-03-04T09:25:29.566Z,5.42
2023-03-04T09:35:33.327Z,5.08
2023-03-04T09:45:50.236Z,4.61
2023-03-04T09:56:02.352Z,4.59
2023-03-04T10:06:10.582Z,4.66
2023-03-04T10:16:20.628Z,4.86
2023-03-04T10:26:31.249Z,4.91
2023-03-04T10:36:46.883Z,4.62
2023-03-04T10:46:57.897Z,4.74
2023-03-04T10:57:16.884Z,4.30
2023-03-04T11:07:28.038Z,4.36
2023-03-04T11:17:48.513Z,4.71
2023-03-04T11:28:01.182Z,5.11
2023-03-04T11:38:19.963Z,4.83
2023-03-04T11:48:47.015Z,4.54
2023-03-04T11:59:17.818Z,4.31
2023-03-04T12:10:05.601Z,4.09
2023-03-04T12:20:29.663Z,3.70
2023-03-04T12:31:18.952Z,3.47
2023-03-04T12:41:52.582Z,2.53
2023-03-04T12:52:19.754Z,1.18
2023-03-04T13:03:05.677Z,1.37
2023-03-04T13:13:38.103Z,1.00
2023-03-04T13:23:47.636Z,0.63
2023-03-04T13:33:58.960Z,1.42
2023-03-04T13:44:34.485Z,0.27
2023-03-04T13:54:38.275Z,0.03
2023-03-04T14:04:44.691Z,0.58
2023-03-04T14:14:52.690Z,0.45
2023-03-04T14:25:14.070Z,0.76
2023-03-04T14:35:29.687Z,-0.25
2023-03-04T14:45:36.429Z,-0.63
2023-03-04T14:55:40.235Z,-0.74
2023-03-04T15:05:48.623Z,-0.72
2023-03-04T15:16:01.524Z,-0.52
2023-03-04T15:26:06.151Z,-0.01
2023-03-04T15:36:15.216Z,0.00
2023-03-04T15:46:19.653Z,0.21
2023-03-04T15:56:25.771Z,-0.11
2023-03-04T16:06:32.512Z,-0.05
2023-03-04T16:16:36.207Z,-0.18
2023-03-04T16:26:39.848Z,-0.40
2023-03-04T16:36:45.337Z,-0.71
2023-03-04T16:46:49.176Z,-0.75
2023-03-04T16:56:52.851Z,-0.70
2023-03-04T17:06:59.395Z,-0.69
2023-03-04T17:17:07.611Z,-0.42
2023-03-04T17:27:12.108Z,-0.46
2023-03-04T17:37:16.284Z,-0.12
2023-03-04T17:47:22.836Z,0.07
2023-03-04T17:57:26.430Z,0.29
2023-03-04T18:07:30.281Z,0.51
2023-03-04T18:17:33.879Z,0.54
2023-03-04T18:27:40.091Z,0.57
2023-03-04T18:37:45.590Z,0.76
2023-03-04T18:47:53.512Z,0.65
2023-03-04T18:58:06.616Z,0.74
2023-03-04T19:08:10.458Z,0.87
2023-03-04T19:18:14.115Z,0.83
2023-03-04T19:28:17.912Z,0.82
2023-03-04T19:38:22.711Z,0.91
2023-03-04T19:48:27.186Z,0.95
2023-03-04T19:58:31.361Z,1.01
2023-03-04T20:08:42.371Z,1.10
2023-03-04T20:18:46.175Z,1.18
2023-03-04T20:28:52.602Z,1.19
2023-03-04T20:39:04.216Z,1.29
2023-03-04T20:49:15.351Z,1.28
2023-03-04T20:59:21.350Z,1.08
2023-03-04T21:09:28.468Z,0.97
2023-03-04T21:19:38.399Z,0.92
2023-03-04T21:29:43.399Z,0.96
2023-03-04T21:39:47.254Z,0.88
2023-03-04T21:49:53.892Z,0.80
2023-03-04T21:59:57.480Z,0.82
2023-03-04T22:10:03.311Z,0.84
2023-03-04T22:20:10.041Z,0.76
2023-03-04T22:30:18.513Z,0.51
2023-03-04T22:40:22.162Z,0.42
2023-03-04T22:50:27.642Z,0.34
2023-03-04T23:00:34.331Z,0.34
2023-03-04T23:10:38.161Z,0.42
2023-03-04T23:20:43.592Z,0.44
2023-03-04T23:30:47.451Z,0.55
2023-03-04T23:40:56.318Z,0.54
2023-03-04T23:51:03.367Z,0.42
